sensor_id;sensor_type;location;lat;lon;timestamp;pressure;altitude;pressure_sealevel;temperature;humidity
64388;BME280;50709;52.648;4.764;2022-07-29T00:01:59;101955.63;;;19.86;53.23
64388;BME280;50709;52.648;4.764;2022-07-29T00:04:24;101920.25;;;19.35;54.69
64388;BME280;50709;52.648;4.764;2022-07-29T00:06:49;101961.72;;;19.89;54.02
64388;BME280;50709;52.648;4.764;2022-07-29T00:09:15;101976.53;;;19.49;54.42
64388;BME280;50709;52.648;4.764;2022-07-29T00:11:40;101916.47;;;19.50;53.94
64388;BME280;50709;52.648;4.764;2022-07-29T00:14:05;101964.56;;;19.77;53.43
64388;BME280;50709;52.648;4.764;2022-07-29T00:16:31;101965.44;;;19.26;54.31
64388;BME280;50709;52.648;4.764;2022-07-29T00:18:56;101954.06;;;19.72;54.25
64388;BME280;50709;52.648;4.764;2022-07-29T00:21:22;101951.47;;;20.16;53.37
64388;BME280;50709;52.648;4.764;2022-07-29T00:23:47;101966.84;;;19.48;53.95
64388;BME280;50709;52.648;4.764;2022-07-29T00:26:12;101954.84;;;19.77;54.46
64388;BME280;50709;52.648;4.764;2022-07-29T00:28:37;101939.56;;;19.42;54.62
64388;BME280;50709;52.648;4.764;2022-07-29T00:31:03;101932.34;;;19.52;54.16
64388;BME280;50709;52.648;4.764;2022-07-29T00:33:28;101928.53;;;19.68;54.91
64388;BME280;50709;52.648;4.764;2022-07-29T00:35:54;101933.03;;;20.10;52.58
64388;BME280;50709;52.648;4.764;2022-07-29T00:38:19;101945.22;;;20.19;52.98
64388;BME280;50709;52.648;4.764;2022-07-29T00:40:47;101958.28;;;19.31;55.30
64388;BME280;50709;52.648;4.764;2022-07-29T00:43:14;101885.31;;;19.63;54.21
64388;BME280;50709;52.648;4.764;2022-07-29T00:45:40;101940.09;;;20.09;54.03
64388;BME280;50709;52.648;4.764;2022-07-29T00:48:06;101941.97;;;20.04;53.38
64388;BME280;50709;52.648;4.764;2022-07-29T00:50:34;101920.03;;;19.96;54.21
64388;BME280;50709;52.648;4.764;2022-07-29T00:53:01;101880.97;;;19.60;53.25
64388;BME280;50709;52.648;4.764;2022-07-29T00:55:27;101929.56;;;20.06;53.61
64388;BME280;50709;52.648;4.764;2022-07-29T00:57:53;101919.56;;;19.74;54.17
64388;BME280;50709;52.648;4.764;2022-07-29T01:00:24;101923.34;;;20.09;54.11
64388;BME280;50709;52.648;4.764;2022-07-29T01:02:50;101887.31;;;19.50;54.32
64388;BME280;50709;52.648;4.764;2022-07-29T01:05:18;101918.44;;;20.31;53.33
64388;BME280;50709;52.648;4.764;2022-07-29T01:07:46;101877.50;;;19.55;53.61
64388;BME280;50709;52.648;4.764;2022-07-29T01:10:13;101897.44;;;19.28;54.33
64388;BME280;50709;52.648;4.764;2022-07-29T01:12:40;101875.00;;;19.47;55.07
64388;BME280;50709;52.648;4.764;2022-07-29T01:15:08;101920.38;;;19.79;54.06
64388;BME280;50709;52.648;4.764;2022-07-29T01:17:48;101915.44;;;19.59;54.75
64388;BME280;50709;52.648;4.764;2022-07-29T01:20:39;101919.06;;;20.00;52.96
64388;BME280;50709;52.648;4.764;2022-07-29T01:23:31;101926.41;;;20.31;53.34
64388;BME280;50709;52.648;4.764;2022-07-29T01:26:23;101922.00;;;19.86;54.64
64388;BME280;50709;52.648;4.764;2022-07-29T01:29:02;101925.16;;;20.05;53.84
64388;BME280;50709;52.648;4.764;2022-07-29T01:31:39;101924.56;;;19.92;52.54
64388;BME280;50709;52.648;4.764;2022-07-29T01:34:08;101921.81;;;19.47;54.09
64388;BME280;50709;52.648;4.764;2022-07-29T01:37:15;101918.06;;;20.07;54.31
64388;BME280;50709;52.648;4.764;2022-07-29T01:39:46;101892.69;;;19.95;53.16
64388;BME280;50709;52.648;4.764;2022-07-29T01:42:21;101911.28;;;19.94;53.84
64388;BME280;50709;52.648;4.764;2022-07-29T01:45:10;101904.69;;;20.12;53.62
64388;BME280;50709;52.648;4.764;2022-07-29T01:47:43;101892.00;;;19.86;53.22
64388;BME280;50709;52.648;4.764;2022-07-29T01:50:12;101897.34;;;19.82;53.99
64388;BME280;50709;52.648;4.764;2022-07-29T01:52:45;101853.88;;;18.94;54.66
64388;BME280;50709;52.648;4.764;2022-07-29T01:55:15;101909.59;;;19.40;54.35
64388;BME280;50709;52.648;4.764;2022-07-29T01:57:45;101898.75;;;19.54;53.39
64388;BME280;50709;52.648;4.764;2022-07-29T02:00:12;101899.53;;;19.59;53.82
64388;BME280;50709;52.648;4.764;2022-07-29T02:02:39;101897.72;;;19.61;54.04
64388;BME280;50709;52.648;4.764;2022-07-29T02:05:08;101895.47;;;19.39;55.00
64388;BME280;50709;52.648;4.764;2022-07-29T02:07:36;101857.88;;;19.19;54.59
64388;BME280;50709;52.648;4.764;2022-07-29T02:10:03;101834.38;;;19.48;53.54
64388;BME280;50709;52.648;4.764;2022-07-29T02:12:31;101875.13;;;19.41;55.39
64388;BME280;50709;52.648;4.764;2022-07-29T02:14:59;101842.50;;;19.39;54.46
64388;BME280;50709;52.648;4.764;2022-07-29T02:17:33;101843.22;;;19.47;54.31
64388;BME280;50709;52.648;4.764;2022-07-29T02:20:02;101881.75;;;19.65;54.29
64388;BME280;50709;52.648;4.764;2022-07-29T02:22:30;101866.72;;;19.17;54.95
64388;BME280;50709;52.648;4.764;2022-07-29T02:24:57;101877.91;;;18.80;54.89
64388;BME280;50709;52.648;4.764;2022-07-29T02:27:23;101837.22;;;18.86;56.18
64388;BME280;50709;52.648;4.764;2022-07-29T02:29:51;101872.56;;;19.37;54.74
64388;BME280;50709;52.648;4.764;2022-07-29T02:32:18;101879.75;;;18.75;55.48
64388;BME280;50709;52.648;4.764;2022-07-29T02:34:44;101878.69;;;19.40;55.26
64388;BME280;50709;52.648;4.764;2022-07-29T02:37:11;101870.69;;;19.42;55.26
64388;BME280;50709;52.648;4.764;2022-07-29T02:39:40;101887.91;;;19.66;55.29
64388;BME280;50709;52.648;4.764;2022-07-29T02:42:13;101825.63;;;19.43;54.69
64388;BME280;50709;52.648;4.764;2022-07-29T02:44:40;101862.91;;;19.34;54.64
64388;BME280;50709;52.648;4.764;2022-07-29T02:47:24;101854.22;;;19.26;54.72
64388;BME280;50709;52.648;4.764;2022-07-29T02:49:59;101872.28;;;19.02;56.29
64388;BME280;50709;52.648;4.764;2022-07-29T02:55:10;101870.53;;;19.01;54.99
64388;BME280;50709;52.648;4.764;2022-07-29T02:57:51;101881.78;;;19.64;55.64
64388;BME280;50709;52.648;4.764;2022-07-29T03:00:20;101856.75;;;19.32;55.28
64388;BME280;50709;52.648;4.764;2022-07-29T03:02:50;101875.97;;;18.92;56.28
64388;BME280;50709;52.648;4.764;2022-07-29T03:05:19;101853.34;;;18.72;56.31
64388;BME280;50709;52.648;4.764;2022-07-29T03:07:47;101847.38;;;19.12;53.82
64388;BME280;50709;52.648;4.764;2022-07-29T03:10:14;101873.97;;;19.06;55.85
64388;BME280;50709;52.648;4.764;2022-07-29T03:12:41;101819.84;;;19.23;56.19
64388;BME280;50709;52.648;4.764;2022-07-29T03:15:07;101864.38;;;19.01;54.57
64388;BME280;50709;52.648;4.764;2022-07-29T03:17:33;101861.16;;;19.33;53.87
64388;BME280;50709;52.648;4.764;2022-07-29T03:19:59;101861.47;;;19.14;54.92
64388;BME280;50709;52.648;4.764;2022-07-29T03:22:25;101859.31;;;19.37;55.13
64388;BME280;50709;52.648;4.764;2022-07-29T03:24:50;101874.38;;;18.81;57.07
64388;BME280;50709;52.648;4.764;2022-07-29T03:27:16;101807.28;;;18.82;55.83
64388;BME280;50709;52.648;4.764;2022-07-29T03:29:41;101857.66;;;19.31;55.66
64388;BME280;50709;52.648;4.764;2022-07-29T03:32:07;101838.78;;;18.99;56.03
64388;BME280;50709;52.648;4.764;2022-07-29T03:34:33;101845.78;;;19.52;55.34
64388;BME280;50709;52.648;4.764;2022-07-29T03:36:58;101817.72;;;18.93;55.81
64388;BME280;50709;52.648;4.764;2022-07-29T03:39:27;101850.53;;;19.35;55.24
64388;BME280;50709;52.648;4.764;2022-07-29T03:41:55;101842.00;;;19.19;56.23
64388;BME280;50709;52.648;4.764;2022-07-29T03:44:23;101806.47;;;19.30;55.58
64388;BME280;50709;52.648;4.764;2022-07-29T03:46:50;101804.53;;;19.39;54.63
64388;BME280;50709;52.648;4.764;2022-07-29T03:49:18;101860.16;;;19.87;54.86
64388;BME280;50709;52.648;4.764;2022-07-29T03:51:44;101866.13;;;19.97;54.76
64388;BME280;50709;52.648;4.764;2022-07-29T03:54:09;101804.97;;;19.62;54.67
64388;BME280;50709;52.648;4.764;2022-07-29T03:56:39;101808.09;;;19.83;54.78
64388;BME280;50709;52.648;4.764;2022-07-29T03:59:05;101838.03;;;19.88;54.55
64388;BME280;50709;52.648;4.764;2022-07-29T04:01:33;101837.91;;;19.94;54.26
64388;BME280;50709;52.648;4.764;2022-07-29T04:03:59;101801.34;;;19.66;54.81
64388;BME280;50709;52.648;4.764;2022-07-29T04:06:25;101835.91;;;20.04;54.83
64388;BME280;50709;52.648;4.764;2022-07-29T04:08:51;101795.66;;;19.85;55.20
64388;BME280;50709;52.648;4.764;2022-07-29T04:11:16;101834.28;;;19.98;55.56
64388;BME280;50709;52.648;4.764;2022-07-29T04:13:42;101827.44;;;19.88;55.36
64388;BME280;50709;52.648;4.764;2022-07-29T04:16:07;101841.44;;;19.93;55.17
64388;BME280;50709;52.648;4.764;2022-07-29T04:18:32;101835.91;;;20.04;55.06
64388;BME280;50709;52.648;4.764;2022-07-29T04:20:58;101836.56;;;20.15;54.84
64388;BME280;50709;52.648;4.764;2022-07-29T04:23:26;101831.66;;;19.97;56.02
64388;BME280;50709;52.648;4.764;2022-07-29T04:25:51;101807.84;;;19.95;55.08
64388;BME280;50709;52.648;4.764;2022-07-29T04:28:17;101850.03;;;20.06;55.28
64388;BME280;50709;52.648;4.764;2022-07-29T04:30:42;101849.81;;;20.15;55.34
64388;BME280;50709;52.648;4.764;2022-07-29T04:33:07;101797.63;;;19.75;55.53
64388;BME280;50709;52.648;4.764;2022-07-29T04:35:35;101854.38;;;20.09;55.16
64388;BME280;50709;52.648;4.764;2022-07-29T04:38:01;101797.59;;;19.77;55.48
64388;BME280;50709;52.648;4.764;2022-07-29T04:40:27;101848.06;;;20.14;55.47
64388;BME280;50709;52.648;4.764;2022-07-29T04:42:54;101828.84;;;20.05;55.82
64388;BME280;50709;52.648;4.764;2022-07-29T04:45:19;101836.09;;;19.96;55.42
64388;BME280;50709;52.648;4.764;2022-07-29T04:47:45;101852.97;;;19.92;56.67
64388;BME280;50709;52.648;4.764;2022-07-29T04:50:10;101831.41;;;19.65;56.18
64388;BME280;50709;52.648;4.764;2022-07-29T04:52:36;101844.28;;;19.86;56.37
64388;BME280;50709;52.648;4.764;2022-07-29T04:55:02;101845.81;;;19.96;55.89
64388;BME280;50709;52.648;4.764;2022-07-29T04:57:28;101852.97;;;19.92;55.68
64388;BME280;50709;52.648;4.764;2022-07-29T04:59:53;101843.28;;;19.44;56.48
64388;BME280;50709;52.648;4.764;2022-07-29T05:02:19;101845.31;;;19.30;57.65
64388;BME280;50709;52.648;4.764;2022-07-29T05:04:44;101799.38;;;18.81;57.24
64388;BME280;50709;52.648;4.764;2022-07-29T05:07:09;101803.56;;;18.96;57.27
64388;BME280;50709;52.648;4.764;2022-07-29T05:09:35;101800.28;;;18.78;56.80
64388;BME280;50709;52.648;4.764;2022-07-29T05:12:00;101841.84;;;19.26;56.45
64388;BME280;50709;52.648;4.764;2022-07-29T05:14:25;101793.66;;;19.07;57.55
64388;BME280;50709;52.648;4.764;2022-07-29T05:16:51;101853.38;;;19.69;56.33
64388;BME280;50709;52.648;4.764;2022-07-29T05:19:17;101845.78;;;19.52;56.84
64388;BME280;50709;52.648;4.764;2022-07-29T05:21:44;101846.78;;;19.46;56.46
64388;BME280;50709;52.648;4.764;2022-07-29T05:24:09;101846.03;;;18.90;56.99
64388;BME280;50709;52.648;4.764;2022-07-29T05:26:35;101840.22;;;19.17;57.04
64388;BME280;50709;52.648;4.764;2022-07-29T05:29:00;101800.72;;;19.54;56.71
64388;BME280;50709;52.648;4.764;2022-07-29T05:31:25;101854.00;;;18.88;58.24
64388;BME280;50709;52.648;4.764;2022-07-29T05:33:51;101865.19;;;19.06;58.27
64388;BME280;50709;52.648;4.764;2022-07-29T05:36:16;101846.00;;;19.41;57.03
64388;BME280;50709;52.648;4.764;2022-07-29T05:38:41;101847.34;;;19.64;56.52
64388;BME280;50709;52.648;4.764;2022-07-29T05:41:06;101828.31;;;19.89;56.04
64388;BME280;50709;52.648;4.764;2022-07-29T05:43:32;101866.28;;;19.91;56.62
64388;BME280;50709;52.648;4.764;2022-07-29T05:45:58;101857.78;;;19.70;56.84
64388;BME280;50709;52.648;4.764;2022-07-29T05:48:24;101844.09;;;19.93;56.18
64388;BME280;50709;52.648;4.764;2022-07-29T05:50:49;101846.47;;;20.07;56.33
64388;BME280;50709;52.648;4.764;2022-07-29T05:53:14;101835.22;;;19.96;56.20
64388;BME280;50709;52.648;4.764;2022-07-29T05:55:40;101842.59;;;19.81;55.93
64388;BME280;50709;52.648;4.764;2022-07-29T05:58:05;101839.19;;;19.72;55.93
64388;BME280;50709;52.648;4.764;2022-07-29T06:00:30;101838.94;;;19.87;55.16
64388;BME280;50709;52.648;4.764;2022-07-29T06:02:56;101848.78;;;19.80;54.26
64388;BME280;50709;52.648;4.764;2022-07-29T06:05:22;101834.47;;;19.89;55.47
64388;BME280;50709;52.648;4.764;2022-07-29T06:07:47;101838.66;;;20.40;53.97
64388;BME280;50709;52.648;4.764;2022-07-29T06:10:12;101858.38;;;20.28;52.87
64388;BME280;50709;52.648;4.764;2022-07-29T06:12:38;101851.22;;;21.07;52.85
64388;BME280;50709;52.648;4.764;2022-07-29T06:15:03;101843.63;;;21.26;50.28
64388;BME280;50709;52.648;4.764;2022-07-29T06:17:29;101853.00;;;21.73;50.40
64388;BME280;50709;52.648;4.764;2022-07-29T06:19:54;101861.13;;;21.68;50.06
64388;BME280;50709;52.648;4.764;2022-07-29T06:22:20;101855.28;;;22.16;48.85
64388;BME280;50709;52.648;4.764;2022-07-29T06:24:45;101835.78;;;22.46;47.93
64388;BME280;50709;52.648;4.764;2022-07-29T06:27:11;101865.94;;;22.16;48.82
64388;BME280;50709;52.648;4.764;2022-07-29T06:29:36;101833.00;;;21.91;49.33
64388;BME280;50709;52.648;4.764;2022-07-29T06:32:02;101860.63;;;21.54;50.12
64388;BME280;50709;52.648;4.764;2022-07-29T06:34:27;101860.63;;;22.16;49.37
64388;BME280;50709;52.648;4.764;2022-07-29T06:36:52;101855.47;;;22.10;48.86
64388;BME280;50709;52.648;4.764;2022-07-29T06:39:18;101856.03;;;22.22;48.61
64388;BME280;50709;52.648;4.764;2022-07-29T06:41:47;101869.47;;;21.56;50.52
64388;BME280;50709;52.648;4.764;2022-07-29T06:44:13;101844.81;;;22.10;48.38
64388;BME280;50709;52.648;4.764;2022-07-29T06:46:38;101870.16;;;22.80;48.24
64388;BME280;50709;52.648;4.764;2022-07-29T06:49:04;101850.59;;;22.25;48.33
64388;BME280;50709;52.648;4.764;2022-07-29T06:51:29;101856.91;;;21.92;48.64
64388;BME280;50709;52.648;4.764;2022-07-29T06:53:55;101848.91;;;21.92;47.98
64388;BME280;50709;52.648;4.764;2022-07-29T06:56:22;101840.06;;;22.22;48.47
64388;BME280;50709;52.648;4.764;2022-07-29T06:58:47;101853.78;;;22.38;47.95
64388;BME280;50709;52.648;4.764;2022-07-29T07:01:13;101822.09;;;21.37;49.67
64388;BME280;50709;52.648;4.764;2022-07-29T07:03:38;101854.13;;;21.31;49.10
64388;BME280;50709;52.648;4.764;2022-07-29T07:06:03;101852.91;;;21.77;49.03
64388;BME280;50709;52.648;4.764;2022-07-29T07:08:29;101839.38;;;21.85;48.37
64388;BME280;50709;52.648;4.764;2022-07-29T07:10:54;101853.06;;;21.04;49.46
64388;BME280;50709;52.648;4.764;2022-07-29T07:13:20;101866.44;;;21.68;50.15
64388;BME280;50709;52.648;4.764;2022-07-29T07:15:46;101867.03;;;22.09;48.94
64388;BME280;50709;52.648;4.764;2022-07-29T07:18:14;101849.22;;;20.81;50.67
64388;BME280;50709;52.648;4.764;2022-07-29T07:20:40;101866.84;;;21.86;48.61
64388;BME280;50709;52.648;4.764;2022-07-29T07:23:06;101871.97;;;21.60;49.52
64388;BME280;50709;52.648;4.764;2022-07-29T07:25:31;101868.72;;;22.42;49.23
64388;BME280;50709;52.648;4.764;2022-07-29T07:27:56;101875.94;;;22.66;48.41
64388;BME280;50709;52.648;4.764;2022-07-29T07:30:24;101871.88;;;22.55;48.25
64388;BME280;50709;52.648;4.764;2022-07-29T07:32:49;101860.66;;;22.15;48.41
64388;BME280;50709;52.648;4.764;2022-07-29T07:35:15;101820.59;;;22.76;47.28
64388;BME280;50709;52.648;4.764;2022-07-29T07:37:40;101814.00;;;22.88;46.39
64388;BME280;50709;52.648;4.764;2022-07-29T07:40:08;101877.03;;;23.14;46.79
64388;BME280;50709;52.648;4.764;2022-07-29T07:42:34;101854.78;;;22.89;46.18
64388;BME280;50709;52.648;4.764;2022-07-29T07:44:59;101853.91;;;23.16;47.09
64388;BME280;50709;52.648;4.764;2022-07-29T07:47:25;101876.69;;;22.70;47.13
64388;BME280;50709;52.648;4.764;2022-07-29T07:49:50;101871.06;;;22.81;46.69
64388;BME280;50709;52.648;4.764;2022-07-29T07:52:17;101834.63;;;23.08;46.08
64388;BME280;50709;52.648;4.764;2022-07-29T07:54:43;101872.41;;;22.38;46.75
64388;BME280;50709;52.648;4.764;2022-07-29T07:57:12;101868.22;;;22.85;47.08
64388;BME280;50709;52.648;4.764;2022-07-29T07:59:38;101865.63;;;22.84;45.72
64388;BME280;50709;52.648;4.764;2022-07-29T08:02:04;101817.50;;;23.15;45.37
64388;BME280;50709;52.648;4.764;2022-07-29T08:04:30;101860.19;;;23.64;46.08
64388;BME280;50709;52.648;4.764;2022-07-29T08:06:56;101810.44;;;23.40;44.88
64388;BME280;50709;52.648;4.764;2022-07-29T08:09:23;101849.16;;;23.50;45.44
64388;BME280;50709;52.648;4.764;2022-07-29T08:11:48;101872.25;;;23.75;44.17
64388;BME280;50709;52.648;4.764;2022-07-29T08:14:13;101868.34;;;23.85;45.76
64388;BME280;50709;52.648;4.764;2022-07-29T08:16:40;101864.88;;;23.58;43.96
64388;BME280;50709;52.648;4.764;2022-07-29T08:19:05;101874.28;;;23.43;45.82
64388;BME280;50709;52.648;4.764;2022-07-29T08:21:31;101836.50;;;22.51;45.50
64388;BME280;50709;52.648;4.764;2022-07-29T08:23:56;101873.31;;;23.20;47.35
64388;BME280;50709;52.648;4.764;2022-07-29T08:26:42;101854.34;;;23.02;45.60
64388;BME280;50709;52.648;4.764;2022-07-29T08:29:08;101873.44;;;22.89;46.79
64388;BME280;50709;52.648;4.764;2022-07-29T08:31:34;101869.50;;;22.74;46.81
64388;BME280;50709;52.648;4.764;2022-07-29T08:34:00;101871.06;;;22.81;46.27
64388;BME280;50709;52.648;4.764;2022-07-29T08:36:26;101885.44;;;23.29;45.10
64388;BME280;50709;52.648;4.764;2022-07-29T08:38:52;101854.19;;;22.24;46.47
64388;BME280;50709;52.648;4.764;2022-07-29T08:41:20;101862.28;;;23.31;45.79
64388;BME280;50709;52.648;4.764;2022-07-29T08:43:47;101845.41;;;23.79;44.49
64388;BME280;50709;52.648;4.764;2022-07-29T08:46:13;101872.44;;;23.70;45.45
64388;BME280;50709;52.648;4.764;2022-07-29T08:48:40;101867.13;;;23.45;44.62
64388;BME280;50709;52.648;4.764;2022-07-29T08:51:07;101866.13;;;22.95;45.51
64388;BME280;50709;52.648;4.764;2022-07-29T08:53:33;101873.94;;;23.27;45.22
64388;BME280;50709;52.648;4.764;2022-07-29T08:55:59;101824.38;;;23.95;43.70
64388;BME280;50709;52.648;4.764;2022-07-29T08:58:25;101821.47;;;23.78;43.70
64388;BME280;50709;52.648;4.764;2022-07-29T09:00:54;101873.69;;;23.83;43.82
64388;BME280;50709;52.648;4.764;2022-07-29T09:03:23;101871.75;;;24.58;42.16
64388;BME280;50709;52.648;4.764;2022-07-29T09:05:49;101848.31;;;24.87;41.56
64388;BME280;50709;52.648;4.764;2022-07-29T09:08:16;101860.13;;;24.37;41.93
64388;BME280;50709;52.648;4.764;2022-07-29T09:10:43;101859.34;;;24.35;43.50
64388;BME280;50709;52.648;4.764;2022-07-29T09:13:08;101873.34;;;24.40;43.61
64388;BME280;50709;52.648;4.764;2022-07-29T09:15:34;101827.78;;;24.23;43.77
64388;BME280;50709;52.648;4.764;2022-07-29T09:17:59;101847.84;;;24.33;44.86
64388;BME280;50709;52.648;4.764;2022-07-29T09:20:25;101864.03;;;24.50;42.67
64388;BME280;50709;52.648;4.764;2022-07-29T09:22:52;101865.72;;;24.31;43.54
64388;BME280;50709;52.648;4.764;2022-07-29T09:25:38;101864.09;;;24.73;41.72
64388;BME280;50709;52.648;4.764;2022-07-29T09:28:09;101834.13;;;24.20;43.11
64388;BME280;50709;52.648;4.764;2022-07-29T09:30:37;101864.25;;;24.68;41.32
64388;BME280;50709;52.648;4.764;2022-07-29T09:33:14;101856.63;;;25.01;43.19
64388;BME280;50709;52.648;4.764;2022-07-29T09:35:40;101858.91;;;24.90;41.96
64388;BME280;50709;52.648;4.764;2022-07-29T09:38:13;101857.41;;;24.61;40.61
64388;BME280;50709;52.648;4.764;2022-07-29T09:40:39;101863.88;;;25.20;41.26
64388;BME280;50709;52.648;4.764;2022-07-29T09:43:13;101853.97;;;25.63;42.06
64388;BME280;50709;52.648;4.764;2022-07-29T09:45:39;101860.06;;;25.05;40.68
64388;BME280;50709;52.648;4.764;2022-07-29T09:48:16;101811.03;;;25.66;41.17
64388;BME280;50709;52.648;4.764;2022-07-29T09:50:43;101849.66;;;25.99;41.19
64388;BME280;50709;52.648;4.764;2022-07-29T09:53:09;101844.41;;;26.16;40.71
64388;BME280;50709;52.648;4.764;2022-07-29T09:55:51;101854.66;;;25.88;41.98
64388;BME280;50709;52.648;4.764;2022-07-29T09:58:19;101808.19;;;25.69;40.64
64388;BME280;50709;52.648;4.764;2022-07-29T10:00:45;101804.75;;;26.06;39.01
64388;BME280;50709;52.648;4.764;2022-07-29T10:03:12;101810.97;;;26.06;38.18
64388;BME280;50709;52.648;4.764;2022-07-29T10:05:37;101840.56;;;26.22;37.74
64388;BME280;50709;52.648;4.764;2022-07-29T10:08:04;101823.16;;;25.74;39.68
64388;BME280;50709;52.648;4.764;2022-07-29T10:10:32;101820.22;;;25.99;42.06
64388;BME280;50709;52.648;4.764;2022-07-29T10:13:04;101850.09;;;26.47;38.27
64388;BME280;50709;52.648;4.764;2022-07-29T10:15:33;101841.19;;;26.64;39.99
64388;BME280;50709;52.648;4.764;2022-07-29T10:18:02;101802.06;;;26.25;36.40
64388;BME280;50709;52.648;4.764;2022-07-29T10:20:28;101838.59;;;26.62;38.36
64388;BME280;50709;52.648;4.764;2022-07-29T10:22:54;101842.06;;;26.47;38.23
64388;BME280;50709;52.648;4.764;2022-07-29T10:25:21;101838.31;;;26.32;40.29
64388;BME280;50709;52.648;4.764;2022-07-29T10:27:48;101820.88;;;26.23;37.44
64388;BME280;50709;52.648;4.764;2022-07-29T10:30:15;101849.00;;;26.51;37.40
64388;BME280;50709;52.648;4.764;2022-07-29T10:41:16;101840.84;;;25.97;38.84
64388;BME280;50709;52.648;4.764;2022-07-29T10:44:05;101843.84;;;25.51;38.76
64388;BME280;50709;52.648;4.764;2022-07-29T10:46:36;101838.78;;;26.04;38.98
64388;BME280;50709;52.648;4.764;2022-07-29T10:51:51;101841.25;;;26.45;39.84
64388;BME280;50709;52.648;4.764;2022-07-29T10:54:17;101821.34;;;26.68;38.57
64388;BME280;50709;52.648;4.764;2022-07-29T10:56:43;101820.88;;;26.60;38.30
64388;BME280;50709;52.648;4.764;2022-07-29T11:01:43;101839.03;;;25.78;41.98
64388;BME280;50709;52.648;4.764;2022-07-29T11:04:08;101842.41;;;26.39;38.67
64388;BME280;50709;52.648;4.764;2022-07-29T11:09:30;101836.69;;;26.47;37.40
64388;BME280;50709;52.648;4.764;2022-07-29T11:11:57;101834.75;;;26.31;39.26
64388;BME280;50709;52.648;4.764;2022-07-29T11:17:19;101809.47;;;26.91;40.08
64388;BME280;50709;52.648;4.764;2022-07-29T11:19:45;101825.97;;;27.18;39.94
64388;BME280;50709;52.648;4.764;2022-07-29T11:22:11;101826.34;;;27.46;37.81
64388;BME280;50709;52.648;4.764;2022-07-29T11:24:37;101833.28;;;26.80;38.01
64388;BME280;50709;52.648;4.764;2022-07-29T11:27:18;101805.72;;;26.59;39.21
64388;BME280;50709;52.648;4.764;2022-07-29T11:29:50;101827.75;;;27.18;38.95
64388;BME280;50709;52.648;4.764;2022-07-29T11:32:16;101804.28;;;26.34;37.87
64388;BME280;50709;52.648;4.764;2022-07-29T11:34:45;101818.16;;;26.42;37.69
64388;BME280;50709;52.648;4.764;2022-07-29T11:39:39;101805.69;;;25.85;38.28
64388;BME280;50709;52.648;4.764;2022-07-29T11:44:57;101824.69;;;27.26;37.30
64388;BME280;50709;52.648;4.764;2022-07-29T11:47:24;101831.47;;;27.15;37.28
64388;BME280;50709;52.648;4.764;2022-07-29T11:49:51;101798.88;;;26.53;42.89
64388;BME280;50709;52.648;4.764;2022-07-29T11:52:18;101789.69;;;26.94;42.03
64388;BME280;50709;52.648;4.764;2022-07-29T11:54:44;101786.53;;;26.85;42.14
64388;BME280;50709;52.648;4.764;2022-07-29T11:57:10;101820.75;;;27.15;41.21
64388;BME280;50709;52.648;4.764;2022-07-29T11:59:40;101797.72;;;26.94;42.20
64388;BME280;50709;52.648;4.764;2022-07-29T12:02:06;101797.25;;;26.85;41.30
64388;BME280;50709;52.648;4.764;2022-07-29T12:04:32;101804.72;;;26.61;37.41
64388;BME280;50709;52.648;4.764;2022-07-29T12:06:57;101821.22;;;27.24;41.44
64388;BME280;50709;52.648;4.764;2022-07-29T12:09:23;101789.31;;;27.01;41.86
64388;BME280;50709;52.648;4.764;2022-07-29T12:11:49;101810.84;;;27.00;41.89
64388;BME280;50709;52.648;4.764;2022-07-29T12:14:32;101803.31;;;27.24;42.53
64388;BME280;50709;52.648;4.764;2022-07-29T12:16:59;101816.41;;;27.13;41.26
64388;BME280;50709;52.648;4.764;2022-07-29T12:19:25;101805.69;;;27.13;37.57
64388;BME280;50709;52.648;4.764;2022-07-29T12:21:53;101798.78;;;27.42;41.17
64388;BME280;50709;52.648;4.764;2022-07-29T12:24:20;101767.25;;;27.79;37.45
64388;BME280;50709;52.648;4.764;2022-07-29T12:26:50;101792.19;;;27.32;36.99
64388;BME280;50709;52.648;4.764;2022-07-29T12:29:17;101758.84;;;27.69;39.61
64388;BME280;50709;52.648;4.764;2022-07-29T12:31:43;101812.88;;;27.63;40.87
64388;BME280;50709;52.648;4.764;2022-07-29T12:34:13;101822.75;;;27.63;41.04
64388;BME280;50709;52.648;4.764;2022-07-29T12:36:43;101790.34;;;27.50;40.12
64388;BME280;50709;52.648;4.764;2022-07-29T12:39:09;101827.31;;;27.61;40.92
64388;BME280;50709;52.648;4.764;2022-07-29T12:41:36;101821.50;;;27.52;41.64
64388;BME280;50709;52.648;4.764;2022-07-29T12:44:01;101821.31;;;27.56;38.51
64388;BME280;50709;52.648;4.764;2022-07-29T12:46:26;101825.69;;;27.23;38.99
64388;BME280;50709;52.648;4.764;2022-07-29T12:48:53;101786.00;;;26.96;40.30
64388;BME280;50709;52.648;4.764;2022-07-29T12:54:09;101804.28;;;26.34;43.67
64388;BME280;50709;52.648;4.764;2022-07-29T12:56:39;101828.19;;;26.75;41.32
64388;BME280;50709;52.648;4.764;2022-07-29T12:59:18;101824.69;;;26.73;41.03
64388;BME280;50709;52.648;4.764;2022-07-29T13:01:44;101779.47;;;26.48;39.75
64388;BME280;50709;52.648;4.764;2022-07-29T13:04:24;101810.31;;;27.27;40.52
64388;BME280;50709;52.648;4.764;2022-07-29T13:07:01;101789.06;;;27.24;40.98
64388;BME280;50709;52.648;4.764;2022-07-29T13:09:42;101791.16;;;27.34;41.87
64388;BME280;50709;52.648;4.764;2022-07-29T13:12:09;101817.88;;;27.36;42.04
64388;BME280;50709;52.648;4.764;2022-07-29T13:19:34;101815.38;;;26.80;42.70
64388;BME280;50709;52.648;4.764;2022-07-29T13:22:01;101818.94;;;26.98;43.02
64388;BME280;50709;52.648;4.764;2022-07-29T13:24:26;101777.09;;;26.78;43.43
64388;BME280;50709;52.648;4.764;2022-07-29T13:26:52;101819.50;;;26.88;43.23
64388;BME280;50709;52.648;4.764;2022-07-29T13:29:17;101812.75;;;27.49;43.52